createdAt,value
2023-02-27T00:01:31.232Z,2.70
2023-02-27T00:04:08.185Z,2.50
2023-02-27T00:06:44.401Z,1.80
2023-02-27T00:09:20.191Z,2.90
2023-02-27T00:11:56.762Z,1.60
2023-02-27T00:14:39.007Z,1.80
2023-02-27T00:17:16.719Z,2.00
2023-02-27T00:19:53.709Z,2.30
2023-02-27T00:22:31.190Z,2.40
2023-02-27T00:25:09.500Z,1.60
2023-02-27T00:27:46.056Z,3.90
2023-02-27T00:30:26.793Z,3.00
2023-02-27T00:33:03.346Z,3.50
2023-02-27T00:35:40.324Z,1.70
2023-02-27T00:38:17.297Z,2.00
2023-02-27T00:40:53.546Z,1.90
2023-02-27T00:43:30.006Z,2.80
2023-02-27T00:46:05.707Z,1.50
2023-02-27T00:48:42.889Z,1.70
2023-02-27T00:51:20.166Z,1.80
2023-02-27T00:53:56.454Z,3.10
2023-02-27T00:56:33.133Z,2.20
2023-02-27T00:59:09.066Z,2.00
2023-02-27T01:01:45.777Z,1.80
2023-02-27T01:04:22.785Z,2.30
2023-02-27T01:06:58.664Z,2.00
2023-02-27T01:09:36.117Z,1.90
2023-02-27T01:12:12.659Z,1.60
2023-02-27T01:14:49.841Z,1.70
2023-02-27T01:17:26.188Z,1.50
2023-02-27T01:20:02.588Z,2.00
2023-02-27T01:22:39.163Z,4.30
2023-02-27T01:25:17.421Z,2.30
2023-02-27T01:27:53.859Z,1.70
2023-02-27T01:30:30.310Z,1.50
2023-02-27T01:33:06.777Z,2.60
2023-02-27T01:35:43.639Z,1.90
2023-02-27T01:38:21.947Z,1.50
2023-02-27T01:40:57.918Z,1.60
2023-02-27T01:43:34.473Z,1.50
2023-02-27T01:46:12.179Z,1.60
2023-02-27T01:48:48.679Z,3.10
2023-02-27T01:51:27.789Z,2.40
2023-02-27T01:54:06.954Z,2.10
2023-02-27T01:56:44.424Z,2.00
2023-02-27T01:59:23.948Z,1.30
2023-02-27T02:02:01.051Z,1.40
2023-02-27T02:04:41.402Z,1.80
2023-02-27T02:07:21.977Z,1.40
2023-02-27T02:10:02.274Z,1.60
2023-02-27T02:12:42.803Z,1.60
2023-02-27T02:15:21.266Z,1.40
2023-02-27T02:18:13.694Z,3.80
2023-02-27T02:21:42.707Z,1.90
2023-02-27T02:24:53.090Z,1.90
2023-02-27T02:27:51.502Z,2.30
2023-02-27T02:31:02.012Z,2.70
2023-02-27T02:34:27.049Z,1.70
2023-02-27T02:37:46.690Z,2.60
2023-02-27T02:40:38.608Z,1.40
2023-02-27T02:43:22.948Z,1.60
2023-02-27T02:46:13.202Z,1.60
2023-02-27T02:48:59.008Z,1.70
2023-02-27T02:51:44.063Z,2.40
2023-02-27T02:54:30.078Z,1.70
2023-02-27T02:57:14.520Z,2.40
2023-02-27T02:59:58.398Z,2.20
2023-02-27T03:02:41.491Z,3.40
2023-02-27T03:05:26.284Z,3.20
2023-02-27T03:08:08.453Z,2.50
2023-02-27T03:10:52.350Z,2.60
2023-02-27T03:13:36.582Z,1.60
2023-02-27T03:16:22.366Z,2.20
2023-02-27T03:19:07.397Z,1.90
2023-02-27T03:21:49.562Z,1.70
2023-02-27T03:24:35.428Z,1.90
2023-02-27T03:27:14.447Z,2.10
2023-02-27T03:29:59.084Z,2.40
2023-02-27T03:32:45.971Z,2.40
2023-02-27T03:35:25.763Z,2.20
2023-02-27T03:38:11.487Z,2.70
2023-02-27T03:41:07.846Z,2.70
2023-02-27T03:44:04.268Z,2.60
2023-02-27T03:46:42.362Z,3.00
2023-02-27T03:49:19.181Z,2.30
2023-02-27T03:51:54.863Z,2.20
2023-02-27T03:54:39.212Z,2.10
2023-02-27T03:57:16.742Z,2.90
2023-02-27T03:59:53.636Z,2.20
2023-02-27T04:02:30.795Z,2.50
2023-02-27T04:05:07.494Z,2.40
2023-02-27T04:08:18.249Z,2.10
2023-02-27T04:11:33.674Z,3.40
2023-02-27T04:14:42.520Z,2.10
2023-02-27T04:17:35.236Z,2.00
2023-02-27T04:20:44.683Z,2.50
2023-02-27T04:23:36.928Z,2.10
2023-02-27T04:26:29.505Z,2.80
2023-02-27T04:29:14.560Z,3.10
2023-02-27T04:32:00.046Z,3.00
2023-02-27T04:34:43.571Z,2.10
2023-02-27T04:37:30.050Z,2.40
2023-02-27T04:40:15.303Z,2.60
2023-02-27T04:42:57.203Z,1.70
2023-02-27T04:45:38.695Z,1.90
2023-02-27T04:48:24.872Z,1.80
2023-02-27T04:51:11.382Z,3.00
2023-02-27T04:53:54.082Z,2.70
2023-02-27T04:56:34.643Z,2.50
2023-02-27T04:59:17.735Z,2.90
2023-02-27T05:02:01.586Z,1.90
2023-02-27T05:04:45.067Z,2.20
2023-02-27T05:07:29.151Z,1.80
2023-02-27T05:10:10.164Z,1.60
2023-02-27T05:12:54.506Z,1.60
2023-02-27T05:15:39.396Z,2.50
2023-02-27T05:18:19.148Z,1.90
2023-02-27T05:21:11.971Z,2.10
2023-02-27T05:23:59.119Z,2.70
2023-02-27T05:26:54.141Z,2.40
2023-02-27T05:29:43.981Z,1.40
2023-02-27T05:32:40.873Z,1.90
2023-02-27T05:35:29.087Z,3.30
2023-02-27T05:38:17.797Z,1.90
2023-02-27T05:41:00.527Z,1.80
2023-02-27T05:43:42.679Z,2.50
2023-02-27T05:46:23.897Z,2.20
2023-02-27T05:49:05.927Z,2.00
2023-02-27T05:51:47.049Z,2.20
2023-02-27T05:54:34.768Z,1.80
2023-02-27T05:57:19.210Z,2.70
2023-02-27T06:00:05.864Z,1.80
2023-02-27T06:02:48.789Z,1.60
2023-02-27T06:05:28.719Z,3.60
2023-02-27T06:08:06.101Z,1.80
2023-02-27T06:10:44.458Z,2.70
2023-02-27T06:13:20.685Z,1.50
2023-02-27T06:15:57.288Z,3.40
2023-02-27T06:18:35.417Z,1.70
2023-02-27T06:21:17.388Z,3.30
2023-02-27T06:23:54.392Z,1.80
2023-02-27T06:26:31.223Z,2.00
2023-02-27T06:29:08.580Z,2.10
2023-02-27T06:31:45.466Z,3.10
2023-02-27T06:34:21.907Z,1.70
2023-02-27T06:36:57.995Z,1.90
2023-02-27T06:39:34.638Z,2.80
2023-02-27T06:42:11.765Z,3.20
2023-02-27T06:44:49.468Z,1.70
2023-02-27T06:47:26.374Z,1.70
2023-02-27T06:50:02.945Z,4.40
2023-02-27T06:52:40.075Z,2.20
2023-02-27T06:55:23.100Z,2.30
2023-02-27T06:57:59.903Z,1.90
2023-02-27T07:00:35.503Z,2.10
2023-02-27T07:03:11.638Z,2.80
2023-02-27T07:05:47.985Z,2.70
2023-02-27T07:08:24.731Z,2.30
2023-02-27T07:11:02.284Z,2.50
2023-02-27T07:13:39.195Z,2.00
2023-02-27T07:16:17.414Z,1.90
2023-02-27T07:18:55.045Z,3.10
2023-02-27T07:21:33.188Z,3.80
2023-02-27T07:24:11.442Z,2.50
2023-02-27T07:26:49.074Z,2.80
2023-02-27T07:29:26.048Z,2.40
2023-02-27T07:32:03.858Z,2.00
2023-02-27T07:34:40.590Z,2.80
2023-02-27T07:37:16.990Z,3.10
2023-02-27T07:39:53.555Z,2.50
2023-02-27T07:42:30.382Z,2.30
2023-02-27T07:45:08.724Z,2.90
2023-02-27T07:47:45.581Z,3.00
2023-02-27T07:50:22.409Z,2.30
2023-02-27T07:52:59.991Z,2.30
2023-02-27T07:55:37.420Z,2.70
2023-02-27T07:58:14.388Z,4.50
2023-02-27T08:00:51.192Z,5.20
2023-02-27T08:03:28.336Z,2.60
2023-02-27T08:06:04.957Z,2.80
2023-02-27T08:08:41.755Z,2.60
2023-02-27T08:11:18.854Z,4.10
2023-02-27T08:14:00.628Z,2.60
2023-02-27T08:16:38.491Z,2.70
2023-02-27T08:19:17.476Z,3.80
2023-02-27T08:21:54.322Z,2.10
2023-02-27T08:24:31.631Z,4.10
2023-02-27T08:27:08.543Z,3.20
2023-02-27T08:29:45.849Z,2.60
2023-02-27T08:32:22.686Z,2.30
2023-02-27T08:34:58.804Z,2.60
2023-02-27T08:37:35.909Z,2.50
2023-02-27T08:40:18.243Z,3.60
2023-02-27T08:42:56.234Z,2.20
2023-02-27T08:45:32.843Z,2.70
2023-02-27T08:48:10.774Z,3.00
2023-02-27T08:50:46.972Z,4.50
2023-02-27T08:53:23.222Z,3.10
2023-02-27T08:55:59.685Z,2.60
2023-02-27T08:58:37.076Z,3.10
2023-02-27T09:01:14.172Z,3.40
2023-02-27T09:03:50.544Z,5.60
2023-02-27T09:06:26.689Z,3.50
2023-02-27T09:09:03.336Z,4.20
2023-02-27T09:11:40.361Z,3.50
2023-02-27T09:14:16.537Z,2.80
2023-02-27T09:16:54.185Z,3.30
2023-02-27T09:19:31.126Z,3.20
2023-02-27T09:22:07.836Z,3.60
2023-02-27T09:24:44.622Z,3.60
2023-02-27T09:27:21.700Z,3.30
2023-02-27T09:29:59.649Z,3.10
2023-02-27T09:32:36.131Z,2.60
2023-02-27T09:35:16.235Z,2.80
2023-02-27T09:37:53.080Z,2.30
2023-02-27T09:40:33.063Z,3.50
2023-02-27T09:43:18.871Z,4.70
2023-02-27T09:46:01.508Z,3.10
2023-02-27T09:48:46.112Z,3.40
2023-02-27T09:51:25.753Z,2.20
2023-02-27T09:54:07.690Z,2.50
2023-02-27T09:56:55.150Z,3.60
2023-02-27T09:59:43.110Z,2.70
2023-02-27T10:02:46.850Z,3.90
2023-02-27T10:05:38.577Z,4.70
2023-02-27T10:08:25.736Z,3.10
2023-02-27T10:11:10.920Z,3.20
2023-02-27T10:14:03.199Z,4.60
2023-02-27T10:16:42.284Z,4.00
2023-02-27T10:19:29.957Z,2.60
2023-02-27T10:22:15.094Z,2.40
2023-02-27T10:24:57.370Z,2.80
2023-02-27T10:27:35.775Z,3.40
2023-02-27T10:30:32.876Z,3.70
2023-02-27T10:33:25.832Z,3.50
2023-02-27T10:36:04.496Z,5.10
2023-02-27T10:38:45.044Z,3.00
2023-02-27T10:41:24.048Z,3.00
2023-02-27T10:44:07.948Z,3.20
2023-02-27T10:46:45.757Z,5.90
2023-02-27T10:49:26.242Z,2.80
2023-02-27T10:52:18.115Z,3.50
2023-02-27T10:54:53.985Z,4.70
2023-02-27T10:57:43.865Z,5.30
2023-02-27T11:00:41.769Z,5.70
2023-02-27T11:03:29.153Z,4.50
2023-02-27T11:06:12.792Z,3.80
2023-02-27T11:09:08.805Z,4.40
2023-02-27T11:11:45.147Z,2.90
2023-02-27T11:14:34.123Z,3.80
2023-02-27T11:17:23.632Z,3.20
2023-02-27T11:20:01.480Z,4.00
2023-02-27T11:22:38.861Z,2.90
2023-02-27T11:25:31.070Z,3.80
2023-02-27T11:28:25.788Z,4.00
2023-02-27T11:31:17.505Z,2.80
2023-02-27T11:34:01.409Z,3.30
2023-02-27T11:36:50.466Z,3.70
2023-02-27T11:39:36.712Z,4.50
2023-02-27T11:42:34.830Z,3.90
2023-02-27T11:46:18.984Z,3.30
2023-02-27T11:48:42.971Z,3.50
2023-02-27T11:51:54.219Z,3.60
2023-02-27T11:54:43.784Z,3.10
2023-02-27T11:57:31.583Z,4.10
2023-02-27T12:00:25.135Z,3.30
2023-02-27T12:03:18.010Z,3.60
2023-02-27T12:05:59.215Z,3.70
2023-02-27T12:08:44.036Z,4.90
2023-02-27T12:11:29.795Z,4.00
2023-02-27T12:14:14.157Z,3.60
2023-02-27T12:16:56.859Z,4.20
2023-02-27T12:19:42.957Z,5.50
2023-02-27T12:22:29.027Z,3.90
2023-02-27T12:25:15.566Z,4.50
2023-02-27T12:28:01.676Z,3.20
2023-02-27T12:30:47.911Z,5.90
2023-02-27T12:33:40.124Z,3.90
2023-02-27T12:36:21.038Z,3.00
2023-02-27T12:38:58.330Z,4.10
2023-02-27T12:41:54.324Z,3.90
2023-02-27T12:45:01.443Z,6.10
2023-02-27T12:47:50.320Z,4.00
2023-02-27T12:50:33.418Z,3.50
2023-02-27T12:53:36.204Z,3.90
2023-02-27T12:56:20.531Z,3.60
2023-02-27T12:59:10.123Z,4.50
2023-02-27T13:01:56.335Z,4.40
2023-02-27T13:04:46.089Z,3.10
2023-02-27T13:07:34.817Z,3.80
2023-02-27T13:10:25.573Z,4.20
2023-02-27T13:13:11.157Z,4.00
2023-02-27T13:15:56.697Z,4.70
2023-02-27T13:18:49.796Z,3.60
2023-02-27T13:21:36.613Z,4.00
2023-02-27T13:24:28.978Z,3.50
2023-02-27T13:27:11.951Z,4.50
2023-02-27T13:29:56.854Z,3.50
2023-02-27T13:32:44.859Z,5.70
2023-02-27T13:35:43.795Z,4.00
2023-02-27T13:38:44.472Z,4.70
2023-02-27T13:41:44.715Z,5.30
2023-02-27T13:44:46.299Z,4.10
2023-02-27T13:47:52.469Z,5.20
2023-02-27T13:50:56.227Z,4.70
2023-02-27T13:53:33.918Z,3.40
2023-02-27T13:56:35.757Z,6.20
2023-02-27T13:59:26.875Z,3.50
2023-02-27T14:02:05.935Z,4.90
2023-02-27T14:04:51.387Z,4.60
2023-02-27T14:07:32.395Z,4.30
2023-02-27T14:10:15.232Z,4.80
2023-02-27T14:12:52.167Z,5.20
2023-02-27T14:16:11.354Z,3.60
2023-02-27T14:19:00.803Z,3.30
2023-02-27T14:22:02.535Z,5.70
2023-02-27T14:25:00.941Z,9.30
2023-02-27T14:27:51.225Z,4.00
2023-02-27T14:30:54.446Z,6.50
2023-02-27T14:33:43.324Z,6.60
2023-02-27T14:36:26.128Z,6.10
2023-02-27T14:39:05.728Z,4.60
2023-02-27T14:41:53.580Z,7.30
2023-02-27T14:44:39.909Z,4.40
2023-02-27T14:47:26.737Z,5.90
2023-02-27T14:50:02.911Z,4.70
2023-02-27T14:52:46.230Z,5.30
2023-02-27T14:55:30.341Z,4.40
2023-02-27T14:58:18.610Z,5.80
2023-02-27T15:01:08.451Z,5.10
2023-02-27T15:03:51.549Z,3.90
2023-02-27T15:06:38.286Z,3.60
2023-02-27T15:09:26.217Z,5.10
2023-02-27T15:12:05.097Z,5.50
2023-02-27T15:14:44.367Z,4.00
2023-02-27T15:17:27.214Z,4.10
2023-02-27T15:20:07.067Z,5.90
2023-02-27T15:22:46.297Z,5.20
2023-02-27T15:25:38.376Z,5.30
2023-02-27T15:28:29.564Z,4.80
2023-02-27T15:31:07.114Z,8.00
2023-02-27T15:33:43.875Z,7.50
2023-02-27T15:36:29.072Z,4.40
2023-02-27T15:39:23.337Z,6.70
2023-02-27T15:42:03.952Z,5.10
2023-02-27T15:44:46.969Z,6.60
2023-02-27T15:47:28.876Z,6.30
2023-02-27T15:50:12.562Z,7.60
2023-02-27T15:52:57.393Z,6.80
2023-02-27T15:55:37.487Z,5.20
2023-02-27T15:58:27.008Z,5.30
2023-02-27T16:01:10.897Z,5.50
2023-02-27T16:03:51.580Z,6.10
2023-02-27T16:06:32.077Z,4.90
2023-02-27T16:09:22.264Z,4.70
2023-02-27T16:12:25.247Z,6.10
2023-02-27T16:15:35.156Z,5.10
2023-02-27T16:18:35.164Z,6.10
2023-02-27T16:21:22.733Z,6.40
2023-02-27T16:24:18.902Z,7.20
2023-02-27T16:26:59.460Z,6.10
2023-02-27T16:29:44.452Z,6.20
2023-02-27T16:32:30.238Z,6.00
2023-02-27T16:35:19.133Z,6.80
2023-02-27T16:38:02.670Z,4.70
2023-02-27T16:40:40.300Z,5.30
2023-02-27T16:43:16.978Z,6.10
2023-02-27T16:45:59.571Z,5.60
2023-02-27T16:48:37.308Z,5.80
2023-02-27T16:51:21.929Z,4.90
2023-02-27T16:53:59.466Z,5.20
2023-02-27T16:56:38.802Z,6.80
2023-02-27T16:59:33.233Z,5.80
2023-02-27T17:02:15.400Z,8.90
2023-02-27T17:04:52.961Z,6.40
2023-02-27T17:07:29.531Z,5.50
2023-02-27T17:10:06.217Z,8.60
2023-02-27T17:12:44.797Z,7.70
2023-02-27T17:15:23.007Z,6.70
2023-02-27T17:17:59.538Z,9.20
2023-02-27T17:20:36.534Z,7.50
2023-02-27T17:23:14.580Z,6.50
2023-02-27T17:25:51.752Z,7.20
2023-02-27T17:28:28.440Z,11.70
2023-02-27T17:31:09.269Z,8.60
2023-02-27T17:33:45.722Z,8.30
2023-02-27T17:36:23.259Z,7.70
2023-02-27T17:39:03.768Z,6.60
2023-02-27T17:41:40.739Z,6.90
2023-02-27T17:44:17.498Z,6.60
2023-02-27T17:46:54.902Z,7.70
2023-02-27T17:49:32.020Z,7.80
2023-02-27T17:52:09.345Z,6.80
2023-02-27T17:54:46.322Z,7.50
2023-02-27T17:57:22.661Z,6.30
2023-02-27T18:00:00.140Z,9.80
2023-02-27T18:02:37.416Z,5.00
2023-02-27T18:05:16.441Z,9.90
2023-02-27T18:07:55.506Z,5.30
2023-02-27T18:10:32.662Z,8.10
2023-02-27T18:13:09.506Z,8.80
2023-02-27T18:15:46.699Z,8.00
2023-02-27T18:18:24.165Z,7.80
2023-02-27T18:21:10.501Z,8.10
2023-02-27T18:23:48.146Z,5.40
2023-02-27T18:26:31.008Z,6.70
2023-02-27T18:29:10.888Z,6.00
2023-02-27T18:31:50.444Z,6.70
2023-02-27T18:34:27.777Z,7.30
2023-02-27T18:37:04.316Z,6.90
2023-02-27T18:39:42.467Z,7.90
2023-02-27T18:42:20.027Z,6.50
2023-02-27T18:44:57.258Z,8.80
2023-02-27T18:47:33.223Z,8.20
2023-02-27T18:50:13.537Z,6.60
2023-02-27T18:52:50.248Z,7.50
2023-02-27T18:55:26.803Z,7.30
2023-02-27T18:58:06.139Z,8.40
2023-02-27T19:00:43.591Z,7.00
2023-02-27T19:03:21.024Z,8.10
2023-02-27T19:05:57.770Z,8.10
2023-02-27T19:08:34.330Z,7.20
2023-02-27T19:11:10.791Z,10.00
2023-02-27T19:13:47.826Z,7.00
2023-02-27T19:16:25.228Z,6.60
2023-02-27T19:19:02.189Z,8.40
2023-02-27T19:21:38.719Z,7.20
2023-02-27T19:24:16.966Z,8.20
2023-02-27T19:26:53.616Z,6.80
2023-02-27T19:29:30.569Z,9.40
2023-02-27T19:32:09.907Z,9.00
2023-02-27T19:34:46.680Z,9.90
2023-02-27T19:37:23.455Z,11.40
2023-02-27T19:39:59.768Z,8.70
2023-02-27T19:42:36.172Z,8.70
2023-02-27T19:45:16.698Z,8.90
2023-02-27T19:47:53.359Z,7.80
2023-02-27T19:50:31.736Z,9.50
2023-02-27T19:53:08.922Z,10.80
2023-02-27T19:55:45.515Z,7.90
2023-02-27T19:58:22.645Z,8.40
2023-02-27T20:01:00.279Z,9.40
2023-02-27T20:03:37.533Z,7.00
2023-02-27T20:06:26.632Z,8.70
2023-02-27T20:09:03.863Z,10.50
2023-02-27T20:11:40.726Z,11.40
2023-02-27T20:14:17.949Z,12.80
2023-02-27T20:16:55.630Z,16.30
2023-02-27T20:19:32.832Z,10.80
2023-02-27T20:22:09.087Z,20.20
2023-02-27T20:24:47.101Z,8.60
2023-02-27T20:27:24.022Z,13.10
2023-02-27T20:30:01.585Z,13.10
2023-02-27T20:32:38.283Z,11.00
2023-02-27T20:35:18.366Z,14.50
2023-02-27T20:37:55.402Z,15.30
2023-02-27T20:40:32.330Z,11.40
2023-02-27T20:43:08.989Z,13.50
2023-02-27T20:45:47.955Z,13.50
2023-02-27T20:48:24.379Z,16.80
2023-02-27T20:51:06.756Z,14.80
2023-02-27T20:53:45.298Z,12.00
2023-02-27T20:56:24.288Z,17.70
2023-02-27T20:59:01.883Z,13.10
2023-02-27T21:01:38.622Z,12.80
2023-02-27T21:04:14.080Z,13.20
2023-02-27T21:06:50.567Z,11.40
2023-02-27T21:09:27.108Z,10.90
2023-02-27T21:12:03.771Z,11.40
2023-02-27T21:14:42.386Z,14.60
2023-02-27T21:17:20.645Z,15.20
2023-02-27T21:19:57.687Z,14.70
2023-02-27T21:22:34.815Z,11.30
2023-02-27T21:25:13.640Z,15.20
2023-02-27T21:27:50.467Z,12.70
2023-02-27T21:30:29.695Z,10.20
2023-02-27T21:33:07.874Z,11.10
2023-02-27T21:35:49.726Z,13.90
2023-02-27T21:38:25.698Z,16.80
2023-02-27T21:41:06.360Z,12.50
2023-02-27T21:43:42.619Z,10.90
2023-02-27T21:46:21.174Z,12.30
2023-02-27T21:48:57.675Z,12.40
2023-02-27T21:51:40.834Z,13.50
2023-02-27T21:54:18.971Z,12.70
2023-02-27T21:56:55.743Z,11.70
2023-02-27T21:59:32.315Z,14.00
2023-02-27T22:02:08.696Z,12.90
2023-02-27T22:04:45.627Z,12.80
2023-02-27T22:07:22.961Z,8.80
2023-02-27T22:09:59.875Z,13.70
2023-02-27T22:12:37.686Z,13.30
2023-02-27T22:15:18.600Z,9.60
2023-02-27T22:17:55.655Z,12.50
2023-02-27T22:20:31.896Z,10.70
2023-02-27T22:23:08.836Z,10.90
2023-02-27T22:25:46.497Z,10.00
2023-02-27T22:28:22.767Z,9.80
2023-02-27T22:31:10.396Z,8.30
2023-02-27T22:33:48.165Z,7.60
2023-02-27T22:36:27.710Z,10.50
2023-02-27T22:39:04.349Z,8.10
2023-02-27T22:41:43.447Z,9.80
2023-02-27T22:44:22.375Z,8.70
2023-02-27T22:47:00.733Z,8.20
2023-02-27T22:49:37.525Z,6.60
2023-02-27T22:52:16.021Z,7.50
2023-02-27T22:54:53.308Z,6.90
2023-02-27T22:57:29.980Z,7.20
2023-02-27T23:00:07.044Z,7.60
2023-02-27T23:02:48.234Z,6.60
2023-02-27T23:05:25.250Z,6.90
2023-02-27T23:08:02.265Z,6.50
2023-02-27T23:10:41.098Z,7.90
2023-02-27T23:13:18.300Z,7.00
2023-02-27T23:15:56.893Z,6.30
2023-02-27T23:18:33.738Z,6.90
2023-02-27T23:21:15.208Z,6.50
2023-02-27T23:23:53.605Z,6.90
2023-02-27T23:26:30.791Z,7.90
2023-02-27T23:29:08.154Z,7.00
2023-02-27T23:31:45.350Z,7.80
2023-02-27T23:34:22.554Z,5.10
2023-02-27T23:37:00.122Z,6.10
2023-02-27T23:39:37.161Z,7.90
2023-02-27T23:42:16.443Z,6.80
2023-02-27T23:44:53.615Z,6.80
2023-02-27T23:47:46.301Z,6.40
2023-02-27T23:50:25.214Z,5.40
2023-02-27T23:53:03.274Z,5.20
2023-02-27T23:55:41.385Z,5.20
2023-02-27T23:58:17.932Z,5.10
